Time;durP1;ratioP1;P1;durP2;ratioP2;P2;SDS_P1;SDS_P2;PMS_P1;PMS_P2;Temp;Humidity;BMP_temperature;BMP_pressure;BME280_temperature;BME280_humidity;BME280_pressure;Samples;Min_cycle;Max_cycle;Signal;HPM_P1;HPM_P2
2021/10/16 00:01:25;;;;;;;13.77;4.20;;;7.00;99.90;;;;;;5011918;28;20082;-83
2021/10/16 00:03:50;;;;;;;20.50;5.18;;;6.90;99.90;;;;;;5002594;28;20037;-83
2021/10/16 00:06:16;;;;;;;16.67;4.18;;;6.90;99.90;;;;;;5029101;28;20045;-83
2021/10/16 00:08:42;;;;;;;15.50;4.40;;;6.80;99.90;;;;;;5006194;28;20048;-83
2021/10/16 00:11:08;;;;;;;7.88;3.20;;;6.70;99.90;;;;;;5027730;28;20459;-83
2021/10/16 00:13:34;;;;;;;6.85;3.13;;;6.70;99.90;;;;;;5031047;28;20099;-82
2021/10/16 00:15:59;;;;;;;6.93;3.50;;;6.60;99.90;;;;;;5013964;28;20025;-83
2021/10/16 00:18:25;;;;;;;9.35;3.13;;;6.50;99.90;;;;;;5007872;28;20045;-83
2021/10/16 00:20:51;;;;;;;5.88;3.00;;;6.40;99.90;;;;;;5039416;28;20476;-83
2021/10/16 00:23:16;;;;;;;10.00;3.65;;;6.30;99.90;;;;;;5026371;28;20387;-83
2021/10/16 00:25:42;;;;;;;10.20;3.90;;;6.20;99.90;;;;;;5023556;28;20034;-82
2021/10/16 00:28:08;;;;;;;7.95;3.13;;;6.20;99.90;;;;;;5026266;28;20442;-83
2021/10/16 00:30:34;;;;;;;9.70;3.70;;;6.10;99.90;;;;;;5013904;28;20044;-82
2021/10/16 00:33:00;;;;;;;9.30;3.60;;;6.10;99.90;;;;;;5249465;22;20464;-50
2021/10/16 00:35:26;;;;;;;8.25;3.63;;;6.10;99.90;;;;;;5045288;28;20490;-49
2021/10/16 00:37:51;;;;;;;10.00;3.60;;;6.20;99.90;;;;;;5050757;28;20152;-50
2021/10/16 00:40:17;;;;;;;6.15;3.08;;;6.20;99.90;;;;;;5053070;28;20033;-50
2021/10/16 00:42:44;;;;;;;7.20;2.72;;;6.20;99.90;;;;;;5044540;28;20034;-47
2021/10/16 00:45:10;;;;;;;5.70;2.40;;;6.10;99.90;;;;;;5052835;28;20045;-49
2021/10/16 00:47:36;;;;;;;5.28;2.60;;;6.00;99.90;;;;;;5052038;28;20044;-51
2021/10/16 00:50:01;;;;;;;8.77;3.00;;;5.90;99.90;;;;;;5048744;28;20433;-49
2021/10/16 00:52:27;;;;;;;5.22;3.22;;;5.90;99.90;;;;;;5052404;28;20499;-47
2021/10/16 00:54:53;;;;;;;6.90;3.40;;;5.80;99.90;;;;;;5048801;28;20057;-48
2021/10/16 00:57:19;;;;;;;13.57;3.78;;;5.80;99.90;;;;;;5046308;28;20496;-50
2021/10/16 00:59:44;;;;;;;13.18;4.57;;;5.70;99.90;;;;;;5050400;28;20049;-49
2021/10/16 01:02:18;;;;;;;15.60;4.90;;;5.80;99.90;;;;;;5047812;28;20041;-50
2021/10/16 01:04:44;;;;;;;13.48;5.38;;;5.80;99.90;;;;;;5051787;28;20041;-49
2021/10/16 01:07:09;;;;;;;15.77;5.10;;;5.80;99.90;;;;;;5052248;28;20043;-49
2021/10/16 01:09:35;;;;;;;13.75;4.80;;;5.90;99.90;;;;;;5045572;28;20555;-50
2021/10/16 01:12:02;;;;;;;14.27;4.65;;;5.90;99.90;;;;;;5049419;28;20342;-50
2021/10/16 01:14:27;;;;;;;14.40;5.25;;;5.90;99.90;;;;;;5051855;28;20087;-50
2021/10/16 01:16:56;;;;;;;13.18;5.07;;;5.90;99.90;;;;;;5051642;28;20041;-50
2021/10/16 01:19:22;;;;;;;16.95;6.10;;;6.00;99.90;;;;;;5051991;28;20076;-50
2021/10/16 01:21:50;;;;;;;14.77;5.65;;;5.90;99.90;;;;;;5043707;28;20057;-49
2021/10/16 01:24:18;;;;;;;13.70;5.72;;;5.90;99.90;;;;;;5045032;28;20051;-47
2021/10/16 01:26:47;;;;;;;16.55;6.35;;;5.90;99.90;;;;;;5050490;28;20041;-50
2021/10/16 01:29:16;;;;;;;17.50;6.45;;;5.90;99.90;;;;;;5051669;28;20037;-50
2021/10/16 01:31:42;;;;;;;15.13;6.18;;;5.90;99.90;;;;;;5040959;28;20485;-49
2021/10/16 01:34:08;;;;;;;20.08;6.63;;;5.90;99.90;;;;;;5051436;28;20033;-47
2021/10/16 01:36:39;;;;;;;14.52;6.13;;;5.90;99.90;;;;;;5049681;28;20072;-49
2021/10/16 01:39:05;;;;;;;14.35;5.85;;;6.00;99.90;;;;;;5044524;28;20072;-50
2021/10/16 01:41:30;;;;;;;12.10;5.95;;;6.00;99.90;;;;;;5051699;28;20513;-51
2021/10/16 01:43:56;;;;;;;18.45;6.60;;;6.00;99.90;;;;;;5047953;28;20616;-49
2021/10/16 01:46:22;;;;;;;14.45;6.25;;;6.20;99.90;;;;;;5049331;28;20052;-50
2021/10/16 01:48:47;;;;;;;14.15;6.40;;;6.10;99.90;;;;;;5048462;28;20033;-50
2021/10/16 01:51:17;;;;;;;14.00;6.10;;;6.20;99.90;;;;;;5051008;28;20040;-50
2021/10/16 01:53:44;;;;;;;19.20;6.75;;;6.20;99.90;;;;;;5048190;28;20126;-49
2021/10/16 01:56:10;;;;;;;12.18;6.60;;;6.20;99.90;;;;;;5051133;28;20097;-47
2021/10/16 01:58:36;;;;;;;14.45;6.07;;;6.20;99.90;;;;;;5051151;28;20041;-49
2021/10/16 02:01:01;;;;;;;6.93;3.55;;;6.20;99.90;;;;;;5049018;28;20030;-48
2021/10/16 02:03:27;;;;;;;10.27;3.72;;;6.20;99.90;;;;;;5049878;28;20033;-48
2021/10/16 02:05:52;;;;;;;21.15;5.63;;;6.20;99.90;;;;;;5048523;28;20396;-51
2021/10/16 02:08:18;;;;;;;13.77;4.60;;;6.20;99.90;;;;;;5049536;28;20035;-49
2021/10/16 02:10:44;;;;;;;18.77;5.18;;;6.20;99.90;;;;;;5051058;28;20588;-49
2021/10/16 02:13:09;;;;;;;9.73;5.00;;;6.20;99.90;;;;;;5047420;28;20037;-48
2021/10/16 02:15:35;;;;;;;11.70;4.75;;;6.10;99.90;;;;;;5050825;28;20039;-50
2021/10/16 02:18:00;;;;;;;11.55;5.60;;;6.10;99.90;;;;;;5048419;28;20076;-48
2021/10/16 02:20:26;;;;;;;22.20;6.88;;;6.10;99.90;;;;;;5048623;28;20397;-49
2021/10/16 02:22:52;;;;;;;17.30;6.72;;;6.10;99.90;;;;;;5050921;28;20036;-49
2021/10/16 02:25:17;;;;;;;12.60;5.97;;;6.10;99.90;;;;;;5050962;28;20044;-49
2021/10/16 02:27:43;;;;;;;15.82;5.75;;;6.10;99.90;;;;;;5046045;28;20497;-49
2021/10/16 02:30:09;;;;;;;13.77;5.90;;;6.20;99.90;;;;;;5050566;28;20037;-50
2021/10/16 02:32:35;;;;;;;12.82;5.88;;;6.20;99.90;;;;;;5044567;28;20091;-49
2021/10/16 02:35:01;;;;;;;12.07;5.25;;;6.20;99.90;;;;;;5049860;28;20041;-49
2021/10/16 02:37:26;;;;;;;11.65;5.03;;;6.20;99.90;;;;;;5050675;28;20067;-49
2021/10/16 02:39:52;;;;;;;11.98;5.55;;;6.20;99.90;;;;;;5050911;28;20041;-49
2021/10/16 02:42:17;;;;;;;10.30;5.30;;;6.20;99.90;;;;;;5050806;28;20033;-48
2021/10/16 02:44:43;;;;;;;12.85;5.10;;;6.20;99.90;;;;;;5050425;28;20040;-49
2021/10/16 02:47:08;;;;;;;13.13;4.90;;;6.20;99.90;;;;;;5050681;28;20025;-48
2021/10/16 02:49:34;;;;;;;12.75;5.47;;;6.10;99.90;;;;;;5050272;28;20041;-48
2021/10/16 02:52:00;;;;;;;17.13;5.90;;;6.20;99.90;;;;;;5051114;28;20111;-49
2021/10/16 02:54:26;;;;;;;17.20;6.35;;;6.30;99.90;;;;;;5045667;28;20041;-47
2021/10/16 02:56:51;;;;;;;12.98;5.22;;;6.30;99.90;;;;;;5050066;28;20033;-49
2021/10/16 02:59:17;;;;;;;15.85;5.43;;;6.30;99.90;;;;;;5048529;28;20041;-50
2021/10/16 03:01:42;;;;;;;14.98;5.97;;;6.40;99.90;;;;;;5050799;28;20041;-50
2021/10/16 03:04:08;;;;;;;15.07;5.40;;;6.40;99.90;;;;;;5050366;28;20564;-48
2021/10/16 03:06:34;;;;;;;12.02;4.72;;;6.40;99.90;;;;;;5050590;28;20047;-50
2021/10/16 03:08:59;;;;;;;13.85;4.70;;;6.40;99.90;;;;;;5049859;28;20045;-49
2021/10/16 03:11:25;;;;;;;16.63;5.05;;;6.50;99.90;;;;;;5050420;28;20121;-49
2021/10/16 03:13:50;;;;;;;14.35;5.22;;;6.40;99.90;;;;;;5049064;28;20075;-49
2021/10/16 03:16:20;;;;;;;13.75;4.68;;;6.50;99.90;;;;;;5050283;28;20115;-50
2021/10/16 03:18:45;;;;;;;11.73;4.72;;;6.50;99.90;;;;;;5051191;28;20079;-50
2021/10/16 03:21:11;;;;;;;14.35;5.50;;;6.50;99.90;;;;;;5054613;28;20037;-49
2021/10/16 03:23:36;;;;;;;12.65;4.72;;;6.60;99.90;;;;;;5054268;28;20041;-48
2021/10/16 03:26:02;;;;;;;13.75;4.32;;;6.50;99.90;;;;;;5053619;28;20056;-49
2021/10/16 03:28:28;;;;;;;13.57;5.40;;;6.60;99.90;;;;;;5053783;28;20053;-49
2021/10/16 03:30:53;;;;;;;11.02;4.80;;;6.60;99.90;;;;;;5053707;28;20437;-50
2021/10/16 03:33:19;;;;;;;17.77;4.78;;;6.60;99.90;;;;;;5053990;28;20024;-50
2021/10/16 03:35:45;;;;;;;11.70;4.82;;;6.60;99.90;;;;;;5054087;28;20120;-49
2021/10/16 03:38:11;;;;;;;14.63;5.68;;;6.70;99.90;;;;;;5053735;28;20033;-49
2021/10/16 03:40:36;;;;;;;16.95;5.30;;;6.70;99.90;;;;;;5053857;28;20045;-49
2021/10/16 03:43:02;;;;;;;12.57;4.90;;;6.70;99.90;;;;;;5053669;28;20033;-49
2021/10/16 03:45:27;;;;;;;10.80;4.75;;;6.70;99.90;;;;;;5054263;28;20037;-50
2021/10/16 03:47:53;;;;;;;11.75;5.00;;;6.70;99.90;;;;;;5053490;28;20146;-49
2021/10/16 03:50:18;;;;;;;12.88;5.10;;;6.70;99.90;;;;;;5051776;28;20371;-50
2021/10/16 03:52:44;;;;;;;10.18;5.15;;;6.80;99.90;;;;;;5051518;28;20432;-49
2021/10/16 03:55:10;;;;;;;19.83;4.97;;;6.80;99.90;;;;;;5052282;28;20505;-48
2021/10/16 03:57:36;;;;;;;16.25;5.30;;;6.80;99.90;;;;;;5048874;28;20040;-47
2021/10/16 04:00:03;;;;;;;16.60;5.50;;;6.90;99.90;;;;;;5047304;28;20374;-49
2021/10/16 04:02:29;;;;;;;16.55;5.47;;;6.90;99.90;;;;;;5050589;28;20044;-51
2021/10/16 04:04:54;;;;;;;11.55;5.07;;;6.90;99.90;;;;;;5052781;28;20064;-49
2021/10/16 04:07:20;;;;;;;14.35;5.05;;;6.90;99.90;;;;;;5053237;28;20040;-49
2021/10/16 04:09:45;;;;;;;11.93;4.57;;;6.90;99.90;;;;;;5052643;28;20036;-50
2021/10/16 04:12:11;;;;;;;13.73;5.68;;;6.90;99.90;;;;;;5046347;28;20029;-52
2021/10/16 04:14:36;;;;;;;15.15;5.30;;;7.00;99.90;;;;;;5053096;28;20045;-49
2021/10/16 04:17:03;;;;;;;17.48;6.00;;;7.00;99.90;;;;;;5052567;28;20069;-49
2021/10/16 04:19:29;;;;;;;19.58;5.03;;;7.00;99.90;;;;;;5049525;28;20044;-50
2021/10/16 04:21:55;;;;;;;10.50;4.88;;;7.00;99.90;;;;;;5051651;28;20055;-50
2021/10/16 04:24:20;;;;;;;10.52;4.75;;;7.00;99.90;;;;;;5042198;28;20482;-48
2021/10/16 04:26:46;;;;;;;10.70;4.80;;;7.00;99.90;;;;;;5052637;28;20037;-47
2021/10/16 04:29:12;;;;;;;9.02;4.15;;;7.10;99.90;;;;;;5051859;28;20037;-49
2021/10/16 04:31:38;;;;;;;15.40;5.38;;;7.10;99.90;;;;;;5047892;28;20064;-49
2021/10/16 04:34:04;;;;;;;15.55;5.00;;;7.10;99.90;;;;;;5050224;28;20116;-50
2021/10/16 04:36:31;;;;;;;12.88;4.88;;;7.10;99.90;;;;;;5046639;28;20037;-48
2021/10/16 04:38:57;;;;;;;19.83;5.38;;;7.10;99.90;;;;;;5048131;28;20266;-49
2021/10/16 04:41:23;;;;;;;13.02;5.22;;;7.10;99.90;;;;;;5047112;28;20037;-46
2021/10/16 04:43:48;;;;;;;15.23;5.10;;;7.20;99.90;;;;;;5053114;28;20401;-49
2021/10/16 04:46:14;;;;;;;11.88;4.72;;;7.20;99.90;;;;;;5052012;28;20064;-50
2021/10/16 04:48:43;;;;;;;14.53;4.40;;;7.20;99.90;;;;;;5052655;28;20041;-50
2021/10/16 04:51:12;;;;;;;13.38;4.50;;;7.20;99.90;;;;;;5052645;28;20033;-48
2021/10/16 04:53:38;;;;;;;12.02;4.38;;;7.30;99.90;;;;;;5051298;28;20044;-48
2021/10/16 04:56:04;;;;;;;12.45;4.80;;;7.30;99.90;;;;;;5050917;28;20029;-50
2021/10/16 04:58:30;;;;;;;12.70;4.97;;;7.40;99.90;;;;;;5053261;28;20040;-49
2021/10/16 05:00:55;;;;;;;12.57;4.50;;;7.40;99.90;;;;;;5051859;28;20029;-49
2021/10/16 05:03:21;;;;;;;14.27;4.85;;;7.40;99.90;;;;;;5048128;28;20128;-50
2021/10/16 05:05:48;;;;;;;12.32;4.57;;;7.40;99.90;;;;;;5050293;28;20053;-49
2021/10/16 05:08:14;;;;;;;13.73;4.78;;;7.50;99.90;;;;;;5051164;28;20509;-47
2021/10/16 05:10:39;;;;;;;18.95;5.10;;;7.50;99.90;;;;;;5050420;28;20053;-47
2021/10/16 05:13:05;;;;;;;17.42;4.90;;;7.50;99.90;;;;;;5051644;28;20037;-51
2021/10/16 05:15:31;;;;;;;11.48;4.65;;;7.50;99.90;;;;;;5051366;28;20033;-48
2021/10/16 05:17:57;;;;;;;18.48;4.75;;;7.60;99.90;;;;;;5051340;28;20025;-49
2021/10/16 05:20:22;;;;;;;13.25;5.18;;;7.60;99.90;;;;;;5051986;28;20043;-49
2021/10/16 05:22:48;;;;;;;19.05;4.75;;;7.60;99.90;;;;;;5052081;28;20390;-49
2021/10/16 05:25:15;;;;;;;12.13;4.70;;;7.60;99.90;;;;;;5050663;28;20126;-48
2021/10/16 05:27:41;;;;;;;15.13;4.53;;;7.70;99.90;;;;;;5052164;28;20032;-50
2021/10/16 05:30:07;;;;;;;16.55;4.47;;;7.60;99.90;;;;;;5052013;28;20036;-49
2021/10/16 05:32:33;;;;;;;13.10;4.63;;;7.70;99.90;;;;;;5045036;28;20048;-52
2021/10/16 05:34:59;;;;;;;16.30;5.10;;;7.70;99.90;;;;;;5042933;28;20033;-53
2021/10/16 05:37:24;;;;;;;12.77;4.80;;;7.70;99.90;;;;;;5048629;28;20533;-52
2021/10/16 05:39:50;;;;;;;11.43;5.35;;;7.70;99.90;;;;;;5051167;28;20047;-53
2021/10/16 05:42:16;;;;;;;16.58;5.07;;;7.80;99.90;;;;;;5051229;28;20115;-51
2021/10/16 05:44:41;;;;;;;15.50;4.88;;;7.80;99.90;;;;;;5051757;28;20041;-52
2021/10/16 05:47:07;;;;;;;13.63;4.57;;;7.80;99.90;;;;;;5051455;28;20033;-52
2021/10/16 05:49:33;;;;;;;18.25;5.30;;;7.80;99.90;;;;;;5043134;28;20045;-52
2021/10/16 05:51:58;;;;;;;14.23;4.55;;;7.80;99.90;;;;;;5043518;28;20071;-51
2021/10/16 05:54:24;;;;;;;12.35;4.50;;;7.80;99.90;;;;;;5037684;28;20419;-51
2021/10/16 05:56:49;;;;;;;16.65;4.80;;;7.80;99.90;;;;;;5042916;28;20393;-54
2021/10/16 05:59:15;;;;;;;10.98;4.40;;;7.80;99.90;;;;;;5037068;28;20037;-52
2021/10/16 06:01:41;;;;;;;11.75;4.75;;;7.80;99.90;;;;;;5039167;28;20383;-51
2021/10/16 06:04:06;;;;;;;11.98;4.40;;;7.80;99.90;;;;;;5039668;28;20037;-52
2021/10/16 06:06:32;;;;;;;16.70;6.38;;;7.90;99.90;;;;;;5039433;28;20041;-50
2021/10/16 06:08:57;;;;;;;14.90;4.47;;;7.90;99.90;;;;;;5039250;28;20033;-51
2021/10/16 06:11:23;;;;;;;13.18;5.22;;;7.90;99.90;;;;;;5035939;28;20108;-49
2021/10/16 06:13:48;;;;;;;10.20;4.60;;;7.90;99.90;;;;;;5039929;28;20076;-53
2021/10/16 06:16:14;;;;;;;12.43;4.90;;;7.90;99.90;;;;;;5038097;28;20060;-53
2021/10/16 06:18:41;;;;;;;11.32;4.40;;;7.90;99.90;;;;;;5039751;28;20489;-51
2021/10/16 06:21:07;;;;;;;16.95;4.80;;;7.90;99.90;;;;;;5038491;28;20490;-53
2021/10/16 06:23:33;;;;;;;16.60;4.88;;;7.90;99.90;;;;;;5040693;28;20122;-50
2021/10/16 06:25:59;;;;;;;18.27;5.10;;;7.90;99.90;;;;;;5044220;28;20402;-50
2021/10/16 06:28:24;;;;;;;11.70;5.00;;;7.90;99.90;;;;;;5046296;28;20078;-47
2021/10/16 06:30:50;;;;;;;13.07;4.60;;;7.90;99.90;;;;;;5049733;28;20124;-52
2021/10/16 06:36:48;;;;;;;12.90;4.72;;;7.90;99.90;;;;;;5189779;22;20052;-49
2021/10/16 06:39:14;;;;;;;17.77;4.90;;;8.00;99.90;;;;;;5045797;28;20094;-49
2021/10/16 06:41:39;;;;;;;12.73;4.60;;;8.00;99.90;;;;;;5048218;28;20040;-51
2021/10/16 06:44:05;;;;;;;15.52;5.30;;;8.00;99.90;;;;;;5046695;28;20489;-50
2021/10/16 06:46:31;;;;;;;12.65;5.20;;;8.00;99.90;;;;;;5050360;28;20037;-49
2021/10/16 06:48:56;;;;;;;14.73;7.05;;;8.00;99.90;;;;;;5042478;28;20073;-53
2021/10/16 06:51:22;;;;;;;12.27;5.13;;;8.10;99.90;;;;;;5045548;28;20065;-50
2021/10/16 06:53:48;;;;;;;15.52;4.25;;;8.10;99.90;;;;;;5050605;28;20033;-49
2021/10/16 06:56:13;;;;;;;11.30;5.32;;;8.10;99.90;;;;;;5054646;28;20137;-52
2021/10/16 06:58:39;;;;;;;15.23;5.43;;;8.10;99.90;;;;;;5054639;28;20041;-51
2021/10/16 07:01:04;;;;;;;11.93;5.22;;;8.10;99.90;;;;;;5054972;28;20066;-51
2021/10/16 07:03:30;;;;;;;23.58;6.03;;;8.20;99.90;;;;;;5054899;28;20047;-49
2021/10/16 07:05:56;;;;;;;30.85;14.43;;;8.20;99.90;;;;;;5054997;28;20037;-50
2021/10/16 07:08:25;;;;;;;20.35;10.77;;;8.30;99.90;;;;;;5053362;28;20523;-50
2021/10/16 07:10:51;;;;;;;12.27;4.43;;;8.30;99.90;;;;;;5053323;28;20248;-49
2021/10/16 07:13:17;;;;;;;15.82;4.43;;;8.30;99.90;;;;;;5052130;28;20044;-50
2021/10/16 07:15:42;;;;;;;14.82;4.25;;;8.30;99.90;;;;;;5054474;28;20037;-49
2021/10/16 07:18:08;;;;;;;16.25;4.57;;;8.30;99.90;;;;;;5054563;28;20299;-50
2021/10/16 07:20:34;;;;;;;10.77;4.35;;;8.40;99.90;;;;;;5054584;28;20044;-48
2021/10/16 07:22:59;;;;;;;13.88;4.80;;;8.40;99.90;;;;;;5054400;28;20056;-50
2021/10/16 07:25:25;;;;;;;16.70;4.57;;;8.40;99.90;;;;;;5052807;28;20049;-50
2021/10/16 07:27:51;;;;;;;12.57;4.32;;;8.50;99.90;;;;;;5054357;28;20075;-50
2021/10/16 07:30:18;;;;;;;13.65;4.13;;;8.50;99.90;;;;;;5052650;28;20070;-50
2021/10/16 07:32:45;;;;;;;13.48;4.72;;;8.50;99.90;;;;;;5053667;28;20163;-48
2021/10/16 07:35:11;;;;;;;9.15;4.50;;;8.50;99.90;;;;;;5044452;28;20098;-50
2021/10/16 07:37:37;;;;;;;15.15;5.15;;;8.60;99.90;;;;;;5043471;28;20033;-50
2021/10/16 07:40:03;;;;;;;13.05;4.20;;;8.60;99.90;;;;;;5050666;28;20041;-50
2021/10/16 07:42:29;;;;;;;12.52;4.28;;;8.60;99.90;;;;;;5049678;28;20190;-54
2021/10/16 07:44:54;;;;;;;15.07;4.18;;;8.70;99.90;;;;;;5047864;28;20545;-50
2021/10/16 07:47:20;;;;;;;15.68;4.63;;;8.70;99.90;;;;;;5048553;28;20044;-49
2021/10/16 07:49:45;;;;;;;14.52;4.57;;;8.70;99.90;;;;;;5053768;28;20033;-51
2021/10/16 07:52:11;;;;;;;14.52;4.45;;;8.70;99.90;;;;;;5052993;28;20053;-53
2021/10/16 07:54:37;;;;;;;13.18;4.43;;;8.70;99.90;;;;;;5051001;28;20073;-50
2021/10/16 07:57:02;;;;;;;15.38;4.70;;;8.70;99.90;;;;;;5053163;28;20096;-50
2021/10/16 07:59:29;;;;;;;13.50;4.20;;;8.80;99.90;;;;;;5051857;28;20123;-49
2021/10/16 08:01:55;;;;;;;14.73;4.82;;;8.80;99.90;;;;;;5052558;28;20120;-50
2021/10/16 08:04:20;;;;;;;17.92;4.75;;;8.80;99.90;;;;;;5053760;28;20457;-51
2021/10/16 08:06:46;;;;;;;12.93;4.78;;;8.80;99.90;;;;;;5053372;28;20067;-50
2021/10/16 08:09:11;;;;;;;11.27;4.53;;;8.90;99.90;;;;;;5053005;28;20480;-50
2021/10/16 08:11:37;;;;;;;18.80;5.32;;;8.90;99.90;;;;;;5050293;28;20041;-48
2021/10/16 08:14:03;;;;;;;18.38;5.05;;;9.00;99.90;;;;;;5050440;28;20033;-51
2021/10/16 08:16:28;;;;;;;10.88;4.80;;;9.00;99.90;;;;;;5053430;28;20087;-50
2021/10/16 08:18:54;;;;;;;13.77;4.80;;;9.00;99.90;;;;;;5053011;28;20037;-50
2021/10/16 08:21:20;;;;;;;27.60;6.03;;;9.10;99.90;;;;;;5052754;28;20063;-49
2021/10/16 08:23:45;;;;;;;17.77;4.93;;;9.10;99.90;;;;;;5053352;28;20105;-50
2021/10/16 08:26:11;;;;;;;30.23;5.70;;;9.20;99.90;;;;;;5052988;28;21063;-50
2021/10/16 08:28:37;;;;;;;24.63;6.20;;;9.20;99.90;;;;;;5053124;28;20136;-51
2021/10/16 08:31:04;;;;;;;16.92;5.47;;;9.20;99.90;;;;;;5050732;28;20041;-49
2021/10/16 08:33:33;;;;;;;13.80;4.85;;;9.30;99.90;;;;;;5052022;28;20049;-50
2021/10/16 08:36:00;;;;;;;14.57;4.53;;;9.30;99.90;;;;;;5052568;28;20033;-51
2021/10/16 08:38:25;;;;;;;16.90;4.82;;;9.30;99.90;;;;;;5052700;28;20047;-50
2021/10/16 08:40:51;;;;;;;17.70;4.60;;;9.30;99.90;;;;;;5052755;28;20040;-50
2021/10/16 08:43:18;;;;;;;13.55;4.35;;;9.40;99.90;;;;;;5052466;28;20047;-50
2021/10/16 08:45:45;;;;;;;15.05;4.85;;;9.40;99.90;;;;;;5050705;28;20052;-51
2021/10/16 08:48:14;;;;;;;15.05;4.47;;;9.50;99.90;;;;;;5048553;28;20036;-50
2021/10/16 08:50:40;;;;;;;17.70;4.70;;;9.50;99.90;;;;;;5052486;28;20041;-50
2021/10/16 08:53:06;;;;;;;16.60;4.85;;;9.50;99.90;;;;;;5049659;28;20083;-52
2021/10/16 08:55:31;;;;;;;16.10;4.57;;;9.60;99.90;;;;;;5052689;28;20045;-50
2021/10/16 08:57:57;;;;;;;16.98;4.30;;;9.60;99.90;;;;;;5052219;28;20505;-53
2021/10/16 09:00:42;;;;;;;11.95;4.50;;;9.70;99.90;;;;;;5052521;28;20044;-50
2021/10/16 09:03:32;;;;;;;14.25;4.40;;;9.70;99.90;;;;;;5052274;28;20157;-50
2021/10/16 09:06:20;;;;;;;13.95;4.28;;;9.80;99.90;;;;;;5051773;28;20039;-49
2021/10/16 09:08:51;;;;;;;13.68;4.30;;;9.80;99.90;;;;;;5050504;28;20508;-50
2021/10/16 09:11:18;;;;;;;14.25;4.60;;;9.90;99.90;;;;;;5052671;28;20045;-50
2021/10/16 09:14:00;;;;;;;14.18;4.53;;;9.90;99.90;;;;;;5044217;28;20036;-50
2021/10/16 09:16:47;;;;;;;16.70;5.45;;;9.90;99.90;;;;;;5049051;28;20108;-50
2021/10/16 09:19:30;;;;;;;12.90;4.35;;;10.00;99.90;;;;;;5046271;28;20045;-50
2021/10/16 09:22:01;;;;;;;;;;;10.00;99.90;;;;;;5052191;28;20043;-50
2021/10/16 09:24:32;;;;;;;18.08;4.35;;;10.10;99.90;;;;;;5052406;28;19923;-50
2021/10/16 09:27:01;;;;;;;21.17;4.60;;;10.10;99.90;;;;;;5051682;28;20037;-50
2021/10/16 09:29:32;;;;;;;13.15;4.18;;;10.10;99.90;;;;;;5052127;28;20045;-48
2021/10/16 09:32:04;;;;;;;17.60;5.15;;;10.20;99.90;;;;;;5052188;28;20052;-50
2021/10/16 09:34:35;;;;;;;15.05;4.70;;;10.20;99.90;;;;;;5048221;28;20037;-50
2021/10/16 09:37:06;;;;;;;15.02;4.03;;;10.20;99.90;;;;;;5050005;28;20599;-50
2021/10/16 09:39:33;;;;;;;17.40;4.68;;;10.30;99.90;;;;;;5048294;28;20401;-53
2021/10/16 09:41:59;;;;;;;17.70;4.18;;;10.30;99.90;;;;;;5050733;28;20063;-50
2021/10/16 09:44:31;;;;;;;15.05;4.70;;;10.30;99.90;;;;;;5048917;28;20048;-52
2021/10/16 09:47:01;;;;;;;;;;;10.40;99.90;;;;;;5034271;28;20074;-51
2021/10/16 09:49:33;;;;;;;14.95;4.47;;;10.40;99.90;;;;;;5051851;28;20455;-51
2021/10/16 09:51:59;;;;;;;15.25;4.40;;;10.40;99.90;;;;;;5051798;28;20049;-51
2021/10/16 09:54:25;;;;;;;14.70;4.85;;;10.40;99.90;;;;;;5046225;28;20553;-50
2021/10/16 09:56:51;;;;;;;11.35;4.18;;;10.40;99.90;;;;;;5051405;28;20123;-51
2021/10/16 09:59:19;;;;;;;14.82;4.40;;;10.50;99.90;;;;;;5051410;28;20497;-50
2021/10/16 10:01:46;;;;;;;20.73;4.55;;;10.50;99.90;;;;;;5051306;28;20378;-51
2021/10/16 10:04:15;;;;;;;16.63;4.40;;;10.50;99.90;;;;;;5046294;28;20043;-51
2021/10/16 10:06:41;;;;;;;10.77;3.97;;;10.50;99.90;;;;;;5050266;28;20079;-51
2021/10/16 10:09:07;;;;;;;16.50;4.40;;;10.60;99.90;;;;;;5051132;28;20415;-51
2021/10/16 10:11:34;;;;;;;13.85;4.55;;;10.60;99.90;;;;;;5049992;28;20041;-50
2021/10/16 10:14:02;;;;;;;14.95;4.75;;;10.60;99.90;;;;;;5049136;28;20121;-51
2021/10/16 10:16:28;;;;;;;11.38;3.70;;;10.60;99.90;;;;;;5051105;28;20103;-52
2021/10/16 10:19:00;;;;;;;19.60;4.47;;;10.70;99.90;;;;;;5050740;28;20041;-52
2021/10/16 10:21:37;;;;;;;15.40;3.85;;;10.70;99.90;;;;;;5051683;28;20041;-50
2021/10/16 10:24:05;;;;;;;16.55;4.47;;;10.70;99.90;;;;;;5050229;28;20103;-50
2021/10/16 10:26:36;;;;;;;14.27;4.57;;;10.80;99.90;;;;;;5050995;28;20513;-51
2021/10/16 10:29:10;;;;;;;16.17;4.30;;;10.80;99.90;;;;;;5046260;28;20041;-50
2021/10/16 10:31:45;;;;;;;13.25;4.55;;;10.80;99.90;;;;;;5048207;28;20040;-52
2021/10/16 10:34:22;;;;;;;12.90;4.10;;;10.90;99.90;;;;;;5050787;28;20087;-52
2021/10/16 10:37:12;;;;;;;16.95;5.18;;;10.90;99.90;;;;;;5050785;28;20036;-50
2021/10/16 10:39:42;;;;;;;12.85;4.38;;;10.90;99.90;;;;;;5047905;28;20511;-51
2021/10/16 10:42:14;;;;;;;12.35;4.22;;;11.00;99.90;;;;;;5051208;28;20033;-51
2021/10/16 10:44:42;;;;;;;11.20;4.53;;;11.00;99.90;;;;;;5041029;28;20068;-50
2021/10/16 10:47:30;;;;;;;22.52;4.50;;;11.00;99.90;;;;;;5049507;28;20044;-53
2021/10/16 10:50:10;;;;;;;17.55;4.88;;;11.10;99.90;;;;;;5050041;28;20029;-50
2021/10/16 10:52:57;;;;;;;16.73;4.72;;;11.10;99.90;;;;;;5051040;28;20049;-54
2021/10/16 10:55:23;;;;;;;13.80;4.65;;;11.00;99.90;;;;;;5045911;28;20072;-54
2021/10/16 10:58:01;;;;;;;20.27;5.80;;;11.10;99.90;;;;;;5050451;28;20122;-52
2021/10/16 11:00:30;;;;;;;18.05;4.55;;;11.10;99.90;;;;;;5046392;28;20044;-54
2021/10/16 11:02:55;;;;;;;15.73;4.93;;;11.10;99.90;;;;;;5050760;28;20400;-51
2021/10/16 11:05:31;;;;;;;15.88;4.43;;;11.10;99.90;;;;;;5049106;28;20033;-53
2021/10/16 11:08:10;;;;;;;13.38;4.32;;;11.10;99.90;;;;;;5049365;28;20131;-52
2021/10/16 11:10:36;;;;;;;13.75;4.63;;;11.20;99.90;;;;;;5046994;28;20045;-50
2021/10/16 11:13:19;;;;;;;13.98;4.55;;;11.20;99.90;;;;;;5050609;28;20045;-52
2021/10/16 11:15:58;;;;;;;24.40;5.97;;;11.20;99.90;;;;;;5047130;28;20056;-50
2021/10/16 11:18:24;;;;;;;13.65;4.45;;;11.20;99.90;;;;;;5050452;28;20025;-51
2021/10/16 11:20:50;;;;;;;17.02;4.70;;;11.30;99.90;;;;;;5050648;28;20412;-51
2021/10/16 11:23:24;;;;;;;14.07;4.50;;;11.30;99.90;;;;;;5044184;28;20427;-52
2021/10/16 11:26:01;;;;;;;15.88;4.75;;;11.30;99.90;;;;;;5050591;28;20091;-53
2021/10/16 11:28:28;;;;;;;14.48;4.70;;;11.40;99.90;;;;;;5045519;28;20041;-50
2021/10/16 11:30:55;;;;;;;20.90;5.10;;;11.40;99.90;;;;;;5050996;28;20036;-52
2021/10/16 11:33:24;;;;;;;19.95;5.47;;;11.40;99.90;;;;;;5028187;28;20336;-51
2021/10/16 11:35:52;;;;;;;17.67;6.30;;;11.40;99.80;;;;;;5041538;28;20037;-52
2021/10/16 11:38:23;;;;;;;17.20;5.47;;;11.40;99.90;;;;;;5050333;28;20061;-51
2021/10/16 11:40:50;;;;;;;14.82;4.38;;;11.40;99.90;;;;;;5052883;28;20072;-51
2021/10/16 11:43:17;;;;;;;16.83;4.65;;;11.40;99.50;;;;;;5054315;28;20071;-52
2021/10/16 11:45:45;;;;;;;18.98;4.55;;;11.40;99.50;;;;;;5054825;28;20374;-51
2021/10/16 11:48:12;;;;;;;20.80;5.43;;;11.40;99.30;;;;;;5051887;28;20072;-52
2021/10/16 11:50:39;;;;;;;16.52;4.80;;;11.50;99.20;;;;;;5053588;28;20457;-52
2021/10/16 11:53:17;;;;;;;15.35;4.22;;;11.40;99.00;;;;;;5048446;28;20037;-53
2021/10/16 11:55:54;;;;;;;17.88;4.35;;;11.50;98.90;;;;;;5051433;28;20493;-52
2021/10/16 11:58:24;;;;;;;13.52;4.20;;;11.50;99.10;;;;;;5053889;28;20120;-51
2021/10/16 12:00:55;;;;;;;12.07;4.75;;;11.60;99.20;;;;;;5054094;28;20532;-50
2021/10/16 12:03:24;;;;;;;18.85;4.32;;;11.60;99.00;;;;;;5051743;28;20041;-50
2021/10/16 12:05:55;;;;;;;19.40;4.25;;;11.60;98.80;;;;;;5052541;28;20041;-51
2021/10/16 12:08:27;;;;;;;23.58;4.95;;;11.50;98.70;;;;;;5053342;28;20041;-51
2021/10/16 12:10:59;;;;;;;19.55;4.30;;;11.60;98.50;;;;;;5047602;28;20041;-49
2021/10/16 12:13:37;;;;;;;17.75;4.20;;;11.60;98.30;;;;;;5052578;28;20033;-51
2021/10/16 12:16:19;;;;;;;16.98;4.15;;;11.60;98.20;;;;;;5045960;28;20543;-54
2021/10/16 12:18:59;;;;;;;11.07;3.90;;;11.60;97.60;;;;;;5051521;28;20033;-51
2021/10/16 12:21:26;;;;;;;16.35;4.60;;;11.60;97.40;;;;;;5053753;28;20035;-54
2021/10/16 12:23:52;;;;;;;14.52;4.75;;;11.60;97.80;;;;;;5052899;28;20037;-52
2021/10/16 12:26:32;;;;;;;16.65;4.30;;;11.60;97.50;;;;;;5053391;28;20036;-51
2021/10/16 12:29:02;;;;;;;22.15;4.53;;;11.60;97.60;;;;;;5051978;28;20110;-52
2021/10/16 12:31:28;;;;;;;16.50;4.28;;;11.60;97.60;;;;;;5053106;28;20501;-53
2021/10/16 12:34:04;;;;;;;11.68;3.75;;;11.70;97.80;;;;;;5051235;28;20493;-54
2021/10/16 12:36:42;;;;;;;17.55;4.43;;;11.70;97.40;;;;;;5063402;28;20037;-49
2021/10/16 12:39:10;;;;;;;13.30;4.32;;;11.70;97.20;;;;;;5047807;28;20040;-53
2021/10/16 12:41:40;;;;;;;12.27;4.28;;;11.80;97.40;;;;;;5053371;28;20401;-52
2021/10/16 12:44:13;;;;;;;13.57;4.03;;;11.80;96.80;;;;;;5046660;28;20040;-52
2021/10/16 12:46:38;;;;;;;13.98;3.90;;;11.80;96.70;;;;;;5049674;28;20045;-53
2021/10/16 12:49:05;;;;;;;14.55;4.32;;;11.90;96.80;;;;;;5046371;28;20481;-54
2021/10/16 12:51:36;;;;;;;17.77;3.92;;;11.90;96.80;;;;;;5050499;28;20045;-51